sensor_id;sensor_type;location;lat;lon;timestamp;pressure;altitude;pressure_sealevel;temperature;humidity
35676;BME280;21790;42.668;23.298;2023-07-08T00:01:19;95009.63;;;27.65;43.24
35676;BME280;21790;42.668;23.298;2023-07-08T00:03:49;94996.16;;;27.66;43.15
35676;BME280;21790;42.668;23.298;2023-07-08T00:09:18;94992.19;;;27.61;43.51
35676;BME280;21790;42.668;23.298;2023-07-08T00:11:48;94978.56;;;27.67;43.74
35676;BME280;21790;42.668;23.298;2023-07-08T00:14:26;94981.25;;;27.65;43.55
35676;BME280;21790;42.668;23.298;2023-07-08T00:17:01;94973.47;;;27.73;43.40
35676;BME280;21790;42.668;23.298;2023-07-08T00:19:34;94975.16;;;27.61;43.20
35676;BME280;21790;42.668;23.298;2023-07-08T00:22:16;94968.53;;;27.51;43.81
35676;BME280;21790;42.668;23.298;2023-07-08T00:24:50;94972.31;;;27.61;43.31
35676;BME280;21790;42.668;23.298;2023-07-08T00:27:27;94967.78;;;27.73;43.38
35676;BME280;21790;42.668;23.298;2023-07-08T00:30:10;94979.13;;;27.66;43.17
35676;BME280;21790;42.668;23.298;2023-07-08T00:32:41;94971.97;;;27.65;43.68
35676;BME280;21790;42.668;23.298;2023-07-08T00:35:08;94968.16;;;27.62;43.20
35676;BME280;21790;42.668;23.298;2023-07-08T00:37:51;94976.50;;;27.60;43.20
35676;BME280;21790;42.668;23.298;2023-07-08T00:40:28;94970.06;;;27.60;43.41
35676;BME280;21790;42.668;23.298;2023-07-08T00:42:55;94965.91;;;27.53;43.31
35676;BME280;21790;42.668;23.298;2023-07-08T00:45:29;94962.28;;;27.45;43.58
35676;BME280;21790;42.668;23.298;2023-07-08T00:48:18;94959.25;;;27.35;43.53
35676;BME280;21790;42.668;23.298;2023-07-08T00:53:45;94940.50;;;27.10;44.16
35676;BME280;21790;42.668;23.298;2023-07-08T00:59:12;94944.88;;;27.11;44.07
35676;BME280;21790;42.668;23.298;2023-07-08T01:01:52;94939.94;;;27.03;44.51
35676;BME280;21790;42.668;23.298;2023-07-08T01:10:53;94932.97;;;27.27;43.92
35676;BME280;21790;42.668;23.298;2023-07-08T01:13:25;94923.28;;;27.23;43.99
35676;BME280;21790;42.668;23.298;2023-07-08T01:16:16;94933.34;;;27.31;44.37
35676;BME280;21790;42.668;23.298;2023-07-08T01:18:46;94941.25;;;27.18;44.62
35676;BME280;21790;42.668;23.298;2023-07-08T01:21:36;94924.63;;;27.22;43.83
35676;BME280;21790;42.668;23.298;2023-07-08T01:24:10;94932.00;;;27.25;44.19
35676;BME280;21790;42.668;23.298;2023-07-08T01:26:42;94930.31;;;27.22;44.15
35676;BME280;21790;42.668;23.298;2023-07-08T01:29:18;94935.78;;;27.20;44.25
35676;BME280;21790;42.668;23.298;2023-07-08T01:31:45;94913.06;;;27.12;44.42
35676;BME280;21790;42.668;23.298;2023-07-08T01:34:16;94919.88;;;26.94;44.38
35676;BME280;21790;42.668;23.298;2023-07-08T01:36:53;94925.38;;;27.22;44.22
35676;BME280;21790;42.668;23.298;2023-07-08T01:39:25;94929.94;;;27.25;43.90
35676;BME280;21790;42.668;23.298;2023-07-08T01:41:56;94929.53;;;27.29;44.33
35676;BME280;21790;42.668;23.298;2023-07-08T01:44:35;94916.66;;;27.28;43.95
35676;BME280;21790;42.668;23.298;2023-07-08T01:47:23;94914.78;;;27.23;44.00
35676;BME280;21790;42.668;23.298;2023-07-08T01:49:54;94912.13;;;27.17;44.44
35676;BME280;21790;42.668;23.298;2023-07-08T01:52:21;94917.81;;;27.17;43.63
35676;BME280;21790;42.668;23.298;2023-07-08T01:54:56;94912.13;;;27.40;44.25
35676;BME280;21790;42.668;23.298;2023-07-08T01:57:29;94913.09;;;27.35;43.85
35676;BME280;21790;42.668;23.298;2023-07-08T02:00:12;94897.19;;;27.17;44.02
35676;BME280;21790;42.668;23.298;2023-07-08T02:02:52;94911.38;;;27.24;44.24
35676;BME280;21790;42.668;23.298;2023-07-08T02:05:24;94902.84;;;27.17;44.11
35676;BME280;21790;42.668;23.298;2023-07-08T02:07:59;94899.28;;;27.09;44.44
35676;BME280;21790;42.668;23.298;2023-07-08T02:10:33;94914.41;;;27.19;44.64
35676;BME280;21790;42.668;23.298;2023-07-08T02:13:02;94921.78;;;27.22;44.03
35676;BME280;21790;42.668;23.298;2023-07-08T02:15:38;94926.31;;;27.17;43.87
35676;BME280;21790;42.668;23.298;2023-07-08T02:18:16;94918.56;;;27.18;44.04
35676;BME280;21790;42.668;23.298;2023-07-08T02:20:45;94930.69;;;27.11;43.88
35676;BME280;21790;42.668;23.298;2023-07-08T02:23:13;94932.00;;;27.10;43.97
35676;BME280;21790;42.668;23.298;2023-07-08T02:25:58;94934.63;;;27.08;43.92
35676;BME280;21790;42.668;23.298;2023-07-08T02:28:26;94935.00;;;26.96;44.58
35676;BME280;21790;42.668;23.298;2023-07-08T02:31:14;94942.78;;;27.11;44.39
35676;BME280;21790;42.668;23.298;2023-07-08T02:34:00;94943.13;;;27.08;44.17
35676;BME280;21790;42.668;23.298;2023-07-08T02:36:31;94953.72;;;27.07;43.95
35676;BME280;21790;42.668;23.298;2023-07-08T02:38:59;94941.25;;;27.10;43.74
35676;BME280;21790;42.668;23.298;2023-07-08T02:41:33;94956.56;;;27.22;43.68
35676;BME280;21790;42.668;23.298;2023-07-08T02:44:08;94950.72;;;27.13;44.02
35676;BME280;21790;42.668;23.298;2023-07-08T02:46:46;94966.22;;;27.12;43.68
35676;BME280;21790;42.668;23.298;2023-07-08T02:52:33;94961.31;;;27.04;44.16
35676;BME280;21790;42.668;23.298;2023-07-08T02:55:03;94973.38;;;26.97;44.19
35676;BME280;21790;42.668;23.298;2023-07-08T02:57:34;94978.31;;;27.04;44.25
35676;BME280;21790;42.668;23.298;2023-07-08T03:00:20;94973.00;;;27.01;44.19
35676;BME280;21790;42.668;23.298;2023-07-08T03:02:50;94983.41;;;26.98;44.30
35676;BME280;21790;42.668;23.298;2023-07-08T03:05:30;94978.88;;;27.03;44.03
35676;BME280;21790;42.668;23.298;2023-07-08T03:08:04;94979.47;;;27.09;43.71
35676;BME280;21790;42.668;23.298;2023-07-08T03:10:31;94959.38;;;26.92;43.88
35676;BME280;21790;42.668;23.298;2023-07-08T03:13:00;94977.34;;;27.02;44.34
35676;BME280;21790;42.668;23.298;2023-07-08T03:15:48;94976.44;;;26.99;44.22
35676;BME280;21790;42.668;23.298;2023-07-08T03:18:23;94962.63;;;27.03;44.35
35676;BME280;21790;42.668;23.298;2023-07-08T03:20:56;94964.72;;;27.11;43.99
35676;BME280;21790;42.668;23.298;2023-07-08T03:23:43;94972.28;;;27.16;44.22
35676;BME280;21790;42.668;23.298;2023-07-08T03:26:14;94965.47;;;27.19;44.16
35676;BME280;21790;42.668;23.298;2023-07-08T03:28:49;94960.72;;;27.06;43.88
35676;BME280;21790;42.668;23.298;2023-07-08T03:31:22;94954.88;;;27.12;43.84
35676;BME280;21790;42.668;23.298;2023-07-08T03:33:54;94963.59;;;27.36;43.26
35676;BME280;21790;42.668;23.298;2023-07-08T03:36:23;94953.75;;;27.30;43.34
35676;BME280;21790;42.668;23.298;2023-07-08T03:38:54;94965.47;;;27.34;43.27
35676;BME280;21790;42.668;23.298;2023-07-08T03:44:41;94953.38;;;27.33;43.21
35676;BME280;21790;42.668;23.298;2023-07-08T03:47:37;94950.91;;;27.45;43.02
35676;BME280;21790;42.668;23.298;2023-07-08T03:50:08;94943.19;;;27.38;43.10
35676;BME280;21790;42.668;23.298;2023-07-08T03:52:52;94946.75;;;27.31;43.22
35676;BME280;21790;42.668;23.298;2023-07-08T03:55:29;94963.22;;;27.32;43.55
35676;BME280;21790;42.668;23.298;2023-07-08T03:58:25;94955.69;;;27.50;43.22
35676;BME280;21790;42.668;23.298;2023-07-08T04:01:19;94939.00;;;27.46;43.33
35676;BME280;21790;42.668;23.298;2023-07-08T04:03:58;94938.81;;;27.44;43.21
35676;BME280;21790;42.668;23.298;2023-07-08T04:06:27;94939.19;;;27.33;43.63
35676;BME280;21790;42.668;23.298;2023-07-08T04:08:58;94938.03;;;27.44;43.52
35676;BME280;21790;42.668;23.298;2023-07-08T04:11:38;94952.28;;;27.52;43.32
35676;BME280;21790;42.668;23.298;2023-07-08T04:14:13;94957.00;;;27.57;42.93
35676;BME280;21790;42.668;23.298;2023-07-08T04:20:03;94969.28;;;27.67;43.58
35676;BME280;21790;42.668;23.298;2023-07-08T04:22:32;94960.19;;;27.83;43.16
35676;BME280;21790;42.668;23.298;2023-07-08T04:25:03;94949.59;;;27.92;43.25
35676;BME280;21790;42.668;23.298;2023-07-08T04:27:30;94956.41;;;27.96;43.27
35676;BME280;21790;42.668;23.298;2023-07-08T04:29:58;94968.88;;;28.01;42.84
35676;BME280;21790;42.668;23.298;2023-07-08T04:32:52;94958.06;;;28.22;42.73
35676;BME280;21790;42.668;23.298;2023-07-08T04:38:27;94978.28;;;28.41;42.42
35676;BME280;21790;42.668;23.298;2023-07-08T04:41:10;94976.41;;;28.28;41.95
35676;BME280;21790;42.668;23.298;2023-07-08T04:43:39;94982.09;;;28.28;42.34
35676;BME280;21790;42.668;23.298;2023-07-08T04:46:42;94982.13;;;28.21;42.47
35676;BME280;21790;42.668;23.298;2023-07-08T04:49:14;94966.63;;;28.14;42.69
35676;BME280;21790;42.668;23.298;2023-07-08T04:51:58;94971.84;;;28.33;42.57
35676;BME280;21790;42.668;23.298;2023-07-08T04:54:26;94963.72;;;28.29;42.20
35676;BME280;21790;42.668;23.298;2023-07-08T04:57:03;94975.84;;;28.30;42.42
35676;BME280;21790;42.668;23.298;2023-07-08T04:59:29;94965.22;;;28.38;42.24
35676;BME280;21790;42.668;23.298;2023-07-08T05:02:26;94985.78;;;28.61;41.81
35676;BME280;21790;42.668;23.298;2023-07-08T05:04:59;94986.84;;;28.11;42.65
35676;BME280;21790;42.668;23.298;2023-07-08T05:07:32;94994.94;;;28.37;42.32
35676;BME280;21790;42.668;23.298;2023-07-08T05:10:03;94990.78;;;28.46;42.30
35676;BME280;21790;42.668;23.298;2023-07-08T05:12:31;94993.97;;;28.50;41.91
35676;BME280;21790;42.668;23.298;2023-07-08T05:15:06;94997.00;;;28.52;41.87
35676;BME280;21790;42.668;23.298;2023-07-08T05:17:34;94996.41;;;28.53;41.87
35676;BME280;21790;42.668;23.298;2023-07-08T05:20:03;94992.91;;;28.30;42.04
35676;BME280;21790;42.668;23.298;2023-07-08T05:22:37;94995.69;;;28.45;41.78
35676;BME280;21790;42.668;23.298;2023-07-08T05:25:06;94994.22;;;28.29;41.93
35676;BME280;21790;42.668;23.298;2023-07-08T05:27:43;95005.34;;;28.42;41.76
35676;BME280;21790;42.668;23.298;2023-07-08T05:30:18;95009.16;;;28.52;41.66
35676;BME280;21790;42.668;23.298;2023-07-08T05:32:46;95007.44;;;28.49;41.67
35676;BME280;21790;42.668;23.298;2023-07-08T05:35:17;95016.09;;;28.66;41.46
35676;BME280;21790;42.668;23.298;2023-07-08T05:37:45;95002.03;;;28.76;41.19
35676;BME280;21790;42.668;23.298;2023-07-08T05:40:14;95001.13;;;28.74;40.84
35676;BME280;21790;42.668;23.298;2023-07-08T05:42:54;94990.28;;;28.80;40.95
35676;BME280;21790;42.668;23.298;2023-07-08T05:45:24;95004.25;;;28.93;40.86
35676;BME280;21790;42.668;23.298;2023-07-08T05:47:55;95004.09;;;28.83;40.95
35676;BME280;21790;42.668;23.298;2023-07-08T05:50:29;95018.53;;;28.85;41.08
35676;BME280;21790;42.668;23.298;2023-07-08T05:58:59;95019.09;;;28.84;40.55
35676;BME280;21790;42.668;23.298;2023-07-08T06:01:30;95007.75;;;28.76;41.09
35676;BME280;21790;42.668;23.298;2023-07-08T06:03:57;95020.28;;;28.73;40.76
35676;BME280;21790;42.668;23.298;2023-07-08T06:06:29;95025.09;;;28.33;41.22
35676;BME280;21790;42.668;23.298;2023-07-08T06:08:56;95025.44;;;28.44;41.44
35676;BME280;21790;42.668;23.298;2023-07-08T06:11:34;95028.84;;;28.58;41.54
35676;BME280;21790;42.668;23.298;2023-07-08T06:14:01;95037.38;;;28.43;41.51
35676;BME280;21790;42.668;23.298;2023-07-08T06:16:30;95041.97;;;28.38;41.74
35676;BME280;21790;42.668;23.298;2023-07-08T06:19:36;95034.13;;;28.54;41.42
35676;BME280;21790;42.668;23.298;2023-07-08T06:22:03;95031.53;;;28.33;41.96
35676;BME280;21790;42.668;23.298;2023-07-08T06:24:32;95041.59;;;28.42;41.77
35676;BME280;21790;42.668;23.298;2023-07-08T06:27:03;95040.63;;;28.39;41.86
35676;BME280;21790;42.668;23.298;2023-07-08T06:29:41;95035.72;;;28.32;41.76
35676;BME280;21790;42.668;23.298;2023-07-08T06:32:17;95047.31;;;28.19;41.82
35676;BME280;21790;42.668;23.298;2023-07-08T06:34:51;95035.56;;;28.15;41.97
35676;BME280;21790;42.668;23.298;2023-07-08T06:37:34;95047.88;;;28.17;41.79
35676;BME280;21790;42.668;23.298;2023-07-08T06:40:11;95042.75;;;28.16;41.86
35676;BME280;21790;42.668;23.298;2023-07-08T06:42:39;95043.50;;;28.16;41.69
35676;BME280;21790;42.668;23.298;2023-07-08T06:45:11;95031.97;;;28.14;41.47
35676;BME280;21790;42.668;23.298;2023-07-08T06:47:39;95038.94;;;28.21;42.09
35676;BME280;21790;42.668;23.298;2023-07-08T06:50:07;95039.16;;;28.08;41.91
35676;BME280;21790;42.668;23.298;2023-07-08T06:52:36;95021.91;;;28.21;41.08
35676;BME280;21790;42.668;23.298;2023-07-08T06:55:06;95023.38;;;28.45;41.55
35676;BME280;21790;42.668;23.298;2023-07-08T06:57:41;95038.81;;;28.82;40.44
35676;BME280;21790;42.668;23.298;2023-07-08T07:00:10;95039.03;;;28.68;40.20
35676;BME280;21790;42.668;23.298;2023-07-08T07:02:37;95043.75;;;28.81;39.96
35676;BME280;21790;42.668;23.298;2023-07-08T07:05:04;95037.69;;;28.77;39.95
35676;BME280;21790;42.668;23.298;2023-07-08T07:07:55;95046.25;;;29.17;39.65
35676;BME280;21790;42.668;23.298;2023-07-08T07:10:45;95049.56;;;29.38;39.50
35676;BME280;21790;42.668;23.298;2023-07-08T07:13:13;95035.56;;;29.33;39.23
35676;BME280;21790;42.668;23.298;2023-07-08T07:15:50;95046.72;;;29.31;38.63
35676;BME280;21790;42.668;23.298;2023-07-08T07:18:23;95049.56;;;29.38;38.92
35676;BME280;21790;42.668;23.298;2023-07-08T07:20:53;95056.03;;;29.31;39.06
35676;BME280;21790;42.668;23.298;2023-07-08T07:23:22;95062.06;;;29.43;38.80
35676;BME280;21790;42.668;23.298;2023-07-08T07:25:54;95062.03;;;29.50;38.17
35676;BME280;21790;42.668;23.298;2023-07-08T07:28:24;95067.22;;;29.37;38.46
35676;BME280;21790;42.668;23.298;2023-07-08T07:31:10;95064.56;;;29.39;38.53
35676;BME280;21790;42.668;23.298;2023-07-08T07:33:41;95083.88;;;29.48;38.60
35676;BME280;21790;42.668;23.298;2023-07-08T07:36:12;95077.06;;;29.43;39.15
35676;BME280;21790;42.668;23.298;2023-07-08T07:38:39;95077.94;;;29.13;39.33
35676;BME280;21790;42.668;23.298;2023-07-08T07:41:07;95073.59;;;29.13;39.43
35676;BME280;21790;42.668;23.298;2023-07-08T07:43:41;95085.81;;;29.38;39.17
35676;BME280;21790;42.668;23.298;2023-07-08T07:46:11;95078.03;;;29.38;39.12
35676;BME280;21790;42.668;23.298;2023-07-08T07:48:45;95083.16;;;29.40;39.17
35676;BME280;21790;42.668;23.298;2023-07-08T07:51:13;95062.38;;;29.15;39.12
35676;BME280;21790;42.668;23.298;2023-07-08T07:53:51;95075.28;;;29.56;38.87
35676;BME280;21790;42.668;23.298;2023-07-08T07:56:37;95075.84;;;29.54;38.63
35676;BME280;21790;42.668;23.298;2023-07-08T07:59:06;95074.03;;;29.41;38.50
35676;BME280;21790;42.668;23.298;2023-07-08T08:01:35;95071.56;;;29.45;38.84
35676;BME280;21790;42.668;23.298;2023-07-08T08:04:03;95064.69;;;29.48;38.39
35676;BME280;21790;42.668;23.298;2023-07-08T08:06:31;95066.03;;;29.47;38.16
35676;BME280;21790;42.668;23.298;2023-07-08T08:09:06;95070.59;;;29.43;38.27
35676;BME280;21790;42.668;23.298;2023-07-08T08:11:34;95079.59;;;29.64;38.58
35676;BME280;21790;42.668;23.298;2023-07-08T08:14:02;95079.16;;;29.43;38.05
35676;BME280;21790;42.668;23.298;2023-07-08T08:16:35;95060.56;;;29.42;37.91
35676;BME280;21790;42.668;23.298;2023-07-08T08:19:28;95074.00;;;29.49;38.33
35676;BME280;21790;42.668;23.298;2023-07-08T08:21:57;95069.53;;;29.63;38.32
35676;BME280;21790;42.668;23.298;2023-07-08T08:24:46;95082.13;;;29.52;38.29
35676;BME280;21790;42.668;23.298;2023-07-08T08:27:14;95078.16;;;29.48;38.69
35676;BME280;21790;42.668;23.298;2023-07-08T08:29:50;95073.50;;;29.35;38.47
35676;BME280;21790;42.668;23.298;2023-07-08T08:32:40;95072.06;;;29.51;38.43
35676;BME280;21790;42.668;23.298;2023-07-08T08:35:21;95065.00;;;29.60;38.52
35676;BME280;21790;42.668;23.298;2023-07-08T08:37:52;95066.81;;;29.73;38.27
35676;BME280;21790;42.668;23.298;2023-07-08T08:40:30;95068.25;;;29.81;37.60
35676;BME280;21790;42.668;23.298;2023-07-08T08:51:40;95057.91;;;30.18;38.19
35676;BME280;21790;42.668;23.298;2023-07-08T08:54:08;95055.09;;;30.35;37.84
35676;BME280;21790;42.668;23.298;2023-07-08T08:59:55;95063.09;;;30.89;37.27
35676;BME280;21790;42.668;23.298;2023-07-08T09:05:30;95057.75;;;30.93;36.49
35676;BME280;21790;42.668;23.298;2023-07-08T09:08:13;95057.81;;;31.20;36.28
35676;BME280;21790;42.668;23.298;2023-07-08T09:13:33;95046.91;;;30.91;35.76
35676;BME280;21790;42.668;23.298;2023-07-08T09:19:05;95053.25;;;31.16;35.51
35676;BME280;21790;42.668;23.298;2023-07-08T09:21:43;95055.44;;;31.26;35.63
35676;BME280;21790;42.668;23.298;2023-07-08T09:24:17;95047.34;;;31.32;35.54
35676;BME280;21790;42.668;23.298;2023-07-08T09:26:43;95045.25;;;31.32;35.69
35676;BME280;21790;42.668;23.298;2023-07-08T09:29:20;95051.34;;;31.46;35.01
35676;BME280;21790;42.668;23.298;2023-07-08T09:32:01;95045.91;;;31.67;34.52
35676;BME280;21790;42.668;23.298;2023-07-08T09:40:34;95037.66;;;31.71;34.61
35676;BME280;21790;42.668;23.298;2023-07-08T09:45:42;95027.91;;;31.47;34.54
35676;BME280;21790;42.668;23.298;2023-07-08T09:50:50;95018.53;;;31.64;34.19
35676;BME280;21790;42.668;23.298;2023-07-08T09:53:23;95008.47;;;31.63;35.32
35676;BME280;21790;42.668;23.298;2023-07-08T09:56:10;95012.59;;;31.79;34.54
35676;BME280;21790;42.668;23.298;2023-07-08T09:58:39;95011.56;;;31.84;34.17
35676;BME280;21790;42.668;23.298;2023-07-08T10:04:19;95019.56;;;31.95;33.30
35676;BME280;21790;42.668;23.298;2023-07-08T10:09:27;95006.63;;;31.94;33.95
35676;BME280;21790;42.668;23.298;2023-07-08T10:12:16;95016.50;;;31.84;34.04
35676;BME280;21790;42.668;23.298;2023-07-08T10:14:54;95002.31;;;31.67;34.25
35676;BME280;21790;42.668;23.298;2023-07-08T10:17:29;95012.16;;;31.56;34.34
35676;BME280;21790;42.668;23.298;2023-07-08T10:39:17;94988.31;;;32.07;33.60
35676;BME280;21790;42.668;23.298;2023-07-08T10:55:32;94962.59;;;32.36;32.85
35676;BME280;21790;42.668;23.298;2023-07-08T11:01:17;94971.34;;;32.48;32.90
35676;BME280;21790;42.668;23.298;2023-07-08T11:07:34;94961.69;;;32.14;33.17
35676;BME280;21790;42.668;23.298;2023-07-08T11:10:17;94974.81;;;32.27;33.17
35676;BME280;21790;42.668;23.298;2023-07-08T11:13:01;94964.97;;;32.11;32.45
35676;BME280;21790;42.668;23.298;2023-07-08T11:15:49;94967.53;;;32.07;33.17
35676;BME280;21790;42.668;23.298;2023-07-08T11:29:00;94945.25;;;32.05;32.71
35676;BME280;21790;42.668;23.298;2023-07-08T11:31:41;94953.22;;;32.07;32.93
35676;BME280;21790;42.668;23.298;2023-07-08T11:36:49;94946.13;;;31.98;32.45
35676;BME280;21790;42.668;23.298;2023-07-08T11:45:06;94944.41;;;32.12;32.71
35676;BME280;21790;42.668;23.298;2023-07-08T11:48:03;94950.22;;;32.05;33.16
35676;BME280;21790;42.668;23.298;2023-07-08T11:50:58;94946.88;;;31.98;33.12
35676;BME280;21790;42.668;23.298;2023-07-08T11:57:04;94941.56;;;31.76;33.27
35676;BME280;21790;42.668;23.298;2023-07-08T11:59:40;94952.59;;;31.89;32.35
35676;BME280;21790;42.668;23.298;2023-07-08T12:10:51;94948.59;;;31.65;32.72
35676;BME280;21790;42.668;23.298;2023-07-08T12:13:23;94952.56;;;31.79;32.66
35676;BME280;21790;42.668;23.298;2023-07-08T12:18:44;94944.75;;;31.80;32.57
35676;BME280;21790;42.668;23.298;2023-07-08T12:30:12;94954.41;;;31.84;32.39
35676;BME280;21790;42.668;23.298;2023-07-08T12:32:45;94950.75;;;31.74;32.73
35676;BME280;21790;42.668;23.298;2023-07-08T12:35:19;94944.91;;;31.82;32.64
35676;BME280;21790;42.668;23.298;2023-07-08T12:37:48;94946.28;;;31.90;32.59
35676;BME280;21790;42.668;23.298;2023-07-08T12:40:16;94941.38;;;31.64;32.47
35676;BME280;21790;42.668;23.298;2023-07-08T12:42:49;94944.47;;;31.49;32.76
35676;BME280;21790;42.668;23.298;2023-07-08T12:48:24;94936.06;;;31.14;32.81
35676;BME280;21790;42.668;23.298;2023-07-08T12:50:51;94932.28;;;31.12;32.85
35676;BME280;21790;42.668;23.298;2023-07-08T12:53:24;94941.53;;;31.30;32.84
35676;BME280;21790;42.668;23.298;2023-07-08T12:55:54;94930.09;;;31.20;33.71
35676;BME280;21790;42.668;23.298;2023-07-08T13:01:24;94925.38;;;31.15;34.17
35676;BME280;21790;42.668;23.298;2023-07-08T13:06:49;94928.34;;;31.44;33.42
35676;BME280;21790;42.668;23.298;2023-07-08T13:09:35;94928.56;;;31.55;33.29
35676;BME280;21790;42.668;23.298;2023-07-08T13:12:16;94936.44;;;31.38;34.05
35676;BME280;21790;42.668;23.298;2023-07-08T13:14:48;94929.22;;;31.37;34.11
35676;BME280;21790;42.668;23.298;2023-07-08T13:17:15;94936.38;;;31.55;33.63
35676;BME280;21790;42.668;23.298;2023-07-08T13:19:59;94938.00;;;31.48;33.24
35676;BME280;21790;42.668;23.298;2023-07-08T13:22:36;94934.22;;;31.36;33.69
35676;BME280;21790;42.668;23.298;2023-07-08T13:25:16;94932.09;;;31.37;33.01
35676;BME280;21790;42.668;23.298;2023-07-08T13:31:12;94920.59;;;31.17;33.58
35676;BME280;21790;42.668;23.298;2023-07-08T13:33:52;94913.28;;;31.34;33.55
35676;BME280;21790;42.668;23.298;2023-07-08T13:36:53;94926.44;;;31.46;32.99
35676;BME280;21790;42.668;23.298;2023-07-08T13:39:44;94927.81;;;31.55;33.19
35676;BME280;21790;42.668;23.298;2023-07-08T13:42:10;94932.13;;;31.46;32.99
35676;BME280;21790;42.668;23.298;2023-07-08T13:47:36;94931.16;;;31.61;33.27
35676;BME280;21790;42.668;23.298;2023-07-08T13:50:22;94942.78;;;31.36;33.25
35676;BME280;21790;42.668;23.298;2023-07-08T13:55:59;94939.78;;;31.44;32.57
35676;BME280;21790;42.668;23.298;2023-07-08T13:58:29;94934.19;;;31.63;32.66
35676;BME280;21790;42.668;23.298;2023-07-08T14:01:01;94928.78;;;31.67;32.74
35676;BME280;21790;42.668;23.298;2023-07-08T14:06:14;94929.44;;;31.85;32.62
35676;BME280;21790;42.668;23.298;2023-07-08T14:08:46;94931.34;;;31.82;32.58
35676;BME280;21790;42.668;23.298;2023-07-08T14:16:49;94936.16;;;31.43;33.19
35676;BME280;21790;42.668;23.298;2023-07-08T14:31:33;94935.78;;;31.56;32.65
35676;BME280;21790;42.668;23.298;2023-07-08T14:34:21;94926.06;;;31.33;33.12
35676;BME280;21790;42.668;23.298;2023-07-08T14:43:16;94948.63;;;31.38;33.00
35676;BME280;21790;42.668;23.298;2023-07-08T14:51:56;94936.03;;;31.41;32.82
35676;BME280;21790;42.668;23.298;2023-07-08T14:54:37;94926.09;;;31.42;32.87
35676;BME280;21790;42.668;23.298;2023-07-08T14:57:15;94943.19;;;31.33;33.57
35676;BME280;21790;42.668;23.298;2023-07-08T14:59:48;94945.75;;;31.29;32.94
35676;BME280;21790;42.668;23.298;2023-07-08T15:04:49;94939.28;;;31.28;33.59
35676;BME280;21790;42.668;23.298;2023-07-08T15:07:32;94938.31;;;31.16;33.47
35676;BME280;21790;42.668;23.298;2023-07-08T15:10:04;94941.97;;;31.26;33.11
35676;BME280;21790;42.668;23.298;2023-07-08T15:12:37;94944.09;;;31.26;32.52
35676;BME280;21790;42.668;23.298;2023-07-08T15:23:49;94937.88;;;31.20;33.41
35676;BME280;21790;42.668;23.298;2023-07-08T17:25:22;94994.53;;;30.45;33.84
35676;BME280;21790;42.668;23.298;2023-07-08T17:33:35;94998.91;;;30.46;34.25
35676;BME280;21790;42.668;23.298;2023-07-08T17:36:07;94999.91;;;30.41;34.04
35676;BME280;21790;42.668;23.298;2023-07-08T17:41:43;94998.56;;;30.42;34.07
35676;BME280;21790;42.668;23.298;2023-07-08T17:47:08;95005.84;;;30.35;34.34
35676;BME280;21790;42.668;23.298;2023-07-08T17:55:08;95019.59;;;30.29;34.41
35676;BME280;21790;42.668;23.298;2023-07-08T17:57:41;95007.53;;;30.21;34.99
35676;BME280;21790;42.668;23.298;2023-07-08T18:03:15;95021.50;;;30.09;34.84
35676;BME280;21790;42.668;23.298;2023-07-08T18:08:46;95028.38;;;30.06;35.14
35676;BME280;21790;42.668;23.298;2023-07-08T18:11:42;95029.25;;;30.16;34.81
35676;BME280;21790;42.668;23.298;2023-07-08T18:18:03;95019.72;;;29.97;35.23
35676;BME280;21790;42.668;23.298;2023-07-08T18:20:37;95024.31;;;29.92;35.32
35676;BME280;21790;42.668;23.298;2023-07-08T18:23:24;95048.31;;;30.06;35.12
35676;BME280;21790;42.668;23.298;2023-07-08T18:26:22;95044.13;;;30.07;34.91
35676;BME280;21790;42.668;23.298;2023-07-08T18:29:17;95039.78;;;30.06;35.01
35676;BME280;21790;42.668;23.298;2023-07-08T18:31:55;95036.50;;;29.85;34.86
35676;BME280;21790;42.668;23.298;2023-07-08T18:35:01;95052.91;;;29.77;35.74
35676;BME280;21790;42.668;23.298;2023-07-08T18:40:50;95040.00;;;29.51;35.78
35676;BME280;21790;42.668;23.298;2023-07-08T18:47:09;95057.81;;;29.51;35.19
35676;BME280;21790;42.668;23.298;2023-07-08T18:49:56;95062.78;;;29.51;35.80
35676;BME280;21790;42.668;23.298;2023-07-08T18:52:26;95055.97;;;29.06;35.52
35676;BME280;21790;42.668;23.298;2023-07-08T18:58:05;95071.59;;;29.38;35.29
35676;BME280;21790;42.668;23.298;2023-07-08T19:00:32;95075.84;;;29.54;35.35
35676;BME280;21790;42.668;23.298;2023-07-08T19:06:04;95076.06;;;29.48;34.66
35676;BME280;21790;42.668;23.298;2023-07-08T19:11:51;95082.13;;;29.52;34.96
35676;BME280;21790;42.668;23.298;2023-07-08T19:14:18;95078.75;;;29.46;34.65
35676;BME280;21790;42.668;23.298;2023-07-08T19:25:43;95098.44;;;29.52;34.21
35676;BME280;21790;42.668;23.298;2023-07-08T19:31:16;95108.03;;;29.39;34.51
35676;BME280;21790;42.668;23.298;2023-07-08T19:34:04;95102.72;;;29.36;34.89
35676;BME280;21790;42.668;23.298;2023-07-08T19:48:11;95111.13;;;29.19;34.34
35676;BME280;21790;42.668;23.298;2023-07-08T19:59:36;95111.19;;;29.03;34.48
35676;BME280;21790;42.668;23.298;2023-07-08T20:05:11;95113.47;;;29.05;33.94
35676;BME280;21790;42.668;23.298;2023-07-08T20:14:01;95106.72;;;28.78;34.63
35676;BME280;21790;42.668;23.298;2023-07-08T20:16:28;95112.38;;;28.70;34.57
35676;BME280;21790;42.668;23.298;2023-07-08T22:12:28;95111.84;;;27.73;34.39
35676;BME280;21790;42.668;23.298;2023-07-08T22:18:02;95112.63;;;27.81;34.58
35676;BME280;21790;42.668;23.298;2023-07-08T22:20:30;95122.44;;;27.65;34.72
35676;BME280;21790;42.668;23.298;2023-07-08T22:23:09;95112.97;;;27.77;35.06
35676;BME280;21790;42.668;23.298;2023-07-08T22:25:47;95116.00;;;27.72;34.31
35676;BME280;21790;42.668;23.298;2023-07-08T22:31:40;95108.63;;;27.69;34.04